sensor_id;sensor_type;location;lat;lon;timestamp;P1;durP1;ratioP1;P2;durP2;ratioP2
23814;SDS011;12088;53.078;8.720;2022-08-25T00:00:44;1.13;;;0.90;;
23814;SDS011;12088;53.078;8.720;2022-08-25T00:03:10;4.53;;;1.83;;
23814;SDS011;12088;53.078;8.720;2022-08-25T00:05:36;2.03;;;1.33;;
23814;SDS011;12088;53.078;8.720;2022-08-25T00:08:02;0.82;;;0.82;;
23814;SDS011;12088;53.078;8.720;2022-08-25T00:10:30;2.08;;;1.55;;
23814;SDS011;12088;53.078;8.720;2022-08-25T00:12:58;1.83;;;1.63;;
23814;SDS011;12088;53.078;8.720;2022-08-25T00:15:25;1.27;;;1.10;;
23814;SDS011;12088;53.078;8.720;2022-08-25T00:17:50;0.80;;;0.80;;
23814;SDS011;12088;53.078;8.720;2022-08-25T00:20:16;1.33;;;0.98;;
23814;SDS011;12088;53.078;8.720;2022-08-25T00:22:42;1.25;;;1.15;;
23814;SDS011;12088;53.078;8.720;2022-08-25T00:25:07;1.00;;;1.00;;
23814;SDS011;12088;53.078;8.720;2022-08-25T00:27:33;1.23;;;1.13;;
23814;SDS011;12088;53.078;8.720;2022-08-25T00:29:59;0.80;;;0.80;;
23814;SDS011;12088;53.078;8.720;2022-08-25T00:32:25;1.83;;;1.20;;
23814;SDS011;12088;53.078;8.720;2022-08-25T00:34:51;2.25;;;1.00;;
23814;SDS011;12088;53.078;8.720;2022-08-25T00:37:17;1.05;;;0.95;;
23814;SDS011;12088;53.078;8.720;2022-08-25T00:39:43;1.92;;;1.17;;
23814;SDS011;12088;53.078;8.720;2022-08-25T00:42:08;1.45;;;1.35;;
23814;SDS011;12088;53.078;8.720;2022-08-25T00:44:34;1.05;;;1.05;;
23814;SDS011;12088;53.078;8.720;2022-08-25T00:47:00;1.52;;;1.33;;
23814;SDS011;12088;53.078;8.720;2022-08-25T00:49:37;1.67;;;1.05;;
23814;SDS011;12088;53.078;8.720;2022-08-25T00:52:20;2.05;;;1.50;;
23814;SDS011;12088;53.078;8.720;2022-08-25T00:54:56;1.40;;;1.25;;
23814;SDS011;12088;53.078;8.720;2022-08-25T00:57:27;8.93;;;1.20;;
23814;SDS011;12088;53.078;8.720;2022-08-25T00:59:57;2.17;;;1.10;;
23814;SDS011;12088;53.078;8.720;2022-08-25T01:02:22;1.80;;;1.33;;
23814;SDS011;12088;53.078;8.720;2022-08-25T01:04:48;1.10;;;1.00;;
23814;SDS011;12088;53.078;8.720;2022-08-25T01:07:14;1.95;;;1.15;;
23814;SDS011;12088;53.078;8.720;2022-08-25T01:09:42;1.05;;;0.90;;
23814;SDS011;12088;53.078;8.720;2022-08-25T01:12:09;1.88;;;1.15;;
23814;SDS011;12088;53.078;8.720;2022-08-25T01:14:35;1.10;;;0.98;;
23814;SDS011;12088;53.078;8.720;2022-08-25T01:17:02;1.05;;;1.00;;
23814;SDS011;12088;53.078;8.720;2022-08-25T01:19:28;1.90;;;1.30;;
23814;SDS011;12088;53.078;8.720;2022-08-25T01:21:56;1.58;;;1.48;;
23814;SDS011;12088;53.078;8.720;2022-08-25T01:24:28;1.13;;;0.90;;
23814;SDS011;12088;53.078;8.720;2022-08-25T01:27:02;2.47;;;1.35;;
23814;SDS011;12088;53.078;8.720;2022-08-25T01:29:28;1.45;;;1.33;;
23814;SDS011;12088;53.078;8.720;2022-08-25T01:31:56;2.42;;;1.45;;
23814;SDS011;12088;53.078;8.720;2022-08-25T01:34:24;1.38;;;1.15;;
23814;SDS011;12088;53.078;8.720;2022-08-25T01:36:51;1.58;;;1.15;;
23814;SDS011;12088;53.078;8.720;2022-08-25T01:39:17;7.15;;;1.23;;
23814;SDS011;12088;53.078;8.720;2022-08-25T01:41:54;1.92;;;1.30;;
23814;SDS011;12088;53.078;8.720;2022-08-25T01:44:23;2.42;;;1.50;;
23814;SDS011;12088;53.078;8.720;2022-08-25T01:46:50;1.33;;;1.23;;
23814;SDS011;12088;53.078;8.720;2022-08-25T01:49:16;0.90;;;0.90;;
23814;SDS011;12088;53.078;8.720;2022-08-25T01:51:43;2.20;;;1.60;;
23814;SDS011;12088;53.078;8.720;2022-08-25T01:54:15;1.30;;;1.13;;
23814;SDS011;12088;53.078;8.720;2022-08-25T01:56:40;1.08;;;1.08;;
23814;SDS011;12088;53.078;8.720;2022-08-25T01:59:06;3.13;;;1.80;;
23814;SDS011;12088;53.078;8.720;2022-08-25T02:01:32;1.90;;;1.70;;
23814;SDS011;12088;53.078;8.720;2022-08-25T02:03:58;1.25;;;1.15;;
23814;SDS011;12088;53.078;8.720;2022-08-25T02:06:25;2.15;;;1.67;;
23814;SDS011;12088;53.078;8.720;2022-08-25T02:08:58;1.92;;;1.38;;
23814;SDS011;12088;53.078;8.720;2022-08-25T02:11:28;2.58;;;1.50;;
23814;SDS011;12088;53.078;8.720;2022-08-25T02:13:53;1.50;;;1.38;;
23814;SDS011;12088;53.078;8.720;2022-08-25T02:16:21;3.63;;;1.40;;
23814;SDS011;12088;53.078;8.720;2022-08-25T02:18:49;1.73;;;1.55;;
23814;SDS011;12088;53.078;8.720;2022-08-25T02:21:15;1.92;;;1.27;;
23814;SDS011;12088;53.078;8.720;2022-08-25T02:23:41;1.92;;;1.60;;
23814;SDS011;12088;53.078;8.720;2022-08-25T02:26:07;1.05;;;1.05;;
23814;SDS011;12088;53.078;8.720;2022-08-25T02:28:33;2.00;;;1.80;;
23814;SDS011;12088;53.078;8.720;2022-08-25T02:31:00;3.05;;;1.48;;
23814;SDS011;12088;53.078;8.720;2022-08-25T02:33:25;1.48;;;1.35;;
23814;SDS011;12088;53.078;8.720;2022-08-25T02:35:51;1.52;;;1.42;;
23814;SDS011;12088;53.078;8.720;2022-08-25T02:38:16;1.90;;;1.80;;
23814;SDS011;12088;53.078;8.720;2022-08-25T02:40:42;1.83;;;1.42;;
23814;SDS011;12088;53.078;8.720;2022-08-25T02:43:08;2.10;;;1.45;;
23814;SDS011;12088;53.078;8.720;2022-08-25T02:45:33;2.00;;;1.83;;
23814;SDS011;12088;53.078;8.720;2022-08-25T02:47:59;1.80;;;1.60;;
23814;SDS011;12088;53.078;8.720;2022-08-25T02:50:24;1.30;;;1.20;;
23814;SDS011;12088;53.078;8.720;2022-08-25T02:52:50;2.38;;;1.75;;
23814;SDS011;12088;53.078;8.720;2022-08-25T02:55:16;2.03;;;1.60;;
23814;SDS011;12088;53.078;8.720;2022-08-25T02:57:44;2.40;;;1.80;;
23814;SDS011;12088;53.078;8.720;2022-08-25T03:00:10;2.10;;;1.52;;
23814;SDS011;12088;53.078;8.720;2022-08-25T03:02:38;3.50;;;2.05;;
23814;SDS011;12088;53.078;8.720;2022-08-25T03:05:05;1.30;;;1.20;;
23814;SDS011;12088;53.078;8.720;2022-08-25T03:07:31;1.92;;;1.60;;
23814;SDS011;12088;53.078;8.720;2022-08-25T03:09:58;2.00;;;1.88;;
23814;SDS011;12088;53.078;8.720;2022-08-25T03:12:23;4.85;;;2.25;;
23814;SDS011;12088;53.078;8.720;2022-08-25T03:14:49;1.60;;;1.40;;
23814;SDS011;12088;53.078;8.720;2022-08-25T03:17:14;1.55;;;1.45;;
23814;SDS011;12088;53.078;8.720;2022-08-25T03:19:40;1.67;;;1.50;;
23814;SDS011;12088;53.078;8.720;2022-08-25T03:22:05;3.78;;;2.28;;
23814;SDS011;12088;53.078;8.720;2022-08-25T03:24:31;4.67;;;1.80;;
23814;SDS011;12088;53.078;8.720;2022-08-25T03:26:56;1.63;;;1.35;;
23814;SDS011;12088;53.078;8.720;2022-08-25T03:29:23;4.90;;;1.90;;
23814;SDS011;12088;53.078;8.720;2022-08-25T03:31:50;2.07;;;1.47;;
23814;SDS011;12088;53.078;8.720;2022-08-25T03:34:19;2.03;;;1.30;;
23814;SDS011;12088;53.078;8.720;2022-08-25T03:36:46;1.70;;;1.60;;
23814;SDS011;12088;53.078;8.720;2022-08-25T03:39:13;3.23;;;1.83;;
23814;SDS011;12088;53.078;8.720;2022-08-25T03:41:39;2.37;;;1.97;;
23814;SDS011;12088;53.078;8.720;2022-08-25T03:44:05;2.40;;;1.65;;
23814;SDS011;12088;53.078;8.720;2022-08-25T03:46:36;2.30;;;2.00;;
23814;SDS011;12088;53.078;8.720;2022-08-25T03:49:05;3.07;;;1.83;;
23814;SDS011;12088;53.078;8.720;2022-08-25T03:51:34;2.47;;;1.77;;
23814;SDS011;12088;53.078;8.720;2022-08-25T03:54:05;3.90;;;2.37;;
23814;SDS011;12088;53.078;8.720;2022-08-25T03:56:31;2.33;;;2.13;;
23814;SDS011;12088;53.078;8.720;2022-08-25T03:58:57;3.22;;;2.72;;
23814;SDS011;12088;53.078;8.720;2022-08-25T04:01:23;4.07;;;2.57;;
23814;SDS011;12088;53.078;8.720;2022-08-25T04:03:49;3.80;;;1.93;;
23814;SDS011;12088;53.078;8.720;2022-08-25T04:06:15;3.57;;;2.67;;
23814;SDS011;12088;53.078;8.720;2022-08-25T04:08:41;4.13;;;2.47;;
23814;SDS011;12088;53.078;8.720;2022-08-25T04:11:11;5.73;;;2.60;;
23814;SDS011;12088;53.078;8.720;2022-08-25T04:13:39;3.77;;;2.00;;
23814;SDS011;12088;53.078;8.720;2022-08-25T04:16:13;5.80;;;1.93;;
23814;SDS011;12088;53.078;8.720;2022-08-25T04:18:40;2.40;;;2.17;;
23814;SDS011;12088;53.078;8.720;2022-08-25T04:21:07;2.57;;;1.73;;
23814;SDS011;12088;53.078;8.720;2022-08-25T04:23:38;2.30;;;1.70;;
23814;SDS011;12088;53.078;8.720;2022-08-25T04:26:08;2.87;;;2.40;;
23814;SDS011;12088;53.078;8.720;2022-08-25T04:28:35;2.60;;;2.27;;
23814;SDS011;12088;53.078;8.720;2022-08-25T04:31:00;2.57;;;2.27;;
23814;SDS011;12088;53.078;8.720;2022-08-25T04:33:29;2.10;;;1.90;;
23814;SDS011;12088;53.078;8.720;2022-08-25T04:35:54;5.80;;;2.77;;
23814;SDS011;12088;53.078;8.720;2022-08-25T04:38:20;2.30;;;1.93;;
23814;SDS011;12088;53.078;8.720;2022-08-25T04:40:54;2.20;;;1.80;;
23814;SDS011;12088;53.078;8.720;2022-08-25T04:43:20;3.43;;;1.83;;
23814;SDS011;12088;53.078;8.720;2022-08-25T04:45:46;2.10;;;1.80;;
23814;SDS011;12088;53.078;8.720;2022-08-25T04:48:11;2.33;;;1.57;;
23814;SDS011;12088;53.078;8.720;2022-08-25T04:50:38;3.30;;;2.00;;
23814;SDS011;12088;53.078;8.720;2022-08-25T04:53:03;3.87;;;2.47;;
23814;SDS011;12088;53.078;8.720;2022-08-25T04:55:29;2.93;;;2.17;;
23814;SDS011;12088;53.078;8.720;2022-08-25T04:57:54;3.30;;;2.43;;
23814;SDS011;12088;53.078;8.720;2022-08-25T05:00:20;2.53;;;1.70;;
23814;SDS011;12088;53.078;8.720;2022-08-25T05:02:45;4.10;;;1.80;;
23814;SDS011;12088;53.078;8.720;2022-08-25T05:05:11;2.67;;;2.47;;
23814;SDS011;12088;53.078;8.720;2022-08-25T05:07:36;3.47;;;2.47;;
23814;SDS011;12088;53.078;8.720;2022-08-25T05:10:02;6.57;;;2.80;;
23814;SDS011;12088;53.078;8.720;2022-08-25T05:12:28;2.78;;;2.40;;
23814;SDS011;12088;53.078;8.720;2022-08-25T05:14:53;4.80;;;1.90;;
23814;SDS011;12088;53.078;8.720;2022-08-25T05:17:19;4.20;;;2.88;;
23814;SDS011;12088;53.078;8.720;2022-08-25T05:19:44;5.30;;;2.72;;
23814;SDS011;12088;53.078;8.720;2022-08-25T05:22:10;3.40;;;2.13;;
23814;SDS011;12088;53.078;8.720;2022-08-25T05:24:36;2.25;;;1.60;;
23814;SDS011;12088;53.078;8.720;2022-08-25T05:27:01;5.23;;;3.10;;
23814;SDS011;12088;53.078;8.720;2022-08-25T05:29:27;3.75;;;2.33;;
23814;SDS011;12088;53.078;8.720;2022-08-25T05:31:53;3.28;;;2.67;;
23814;SDS011;12088;53.078;8.720;2022-08-25T05:34:19;8.10;;;2.67;;
23814;SDS011;12088;53.078;8.720;2022-08-25T05:36:45;5.55;;;2.47;;
23814;SDS011;12088;53.078;8.720;2022-08-25T05:39:11;3.05;;;2.40;;
23814;SDS011;12088;53.078;8.720;2022-08-25T05:41:37;4.25;;;2.20;;
23814;SDS011;12088;53.078;8.720;2022-08-25T05:44:03;2.72;;;2.15;;
23814;SDS011;12088;53.078;8.720;2022-08-25T05:46:29;6.57;;;2.65;;
23814;SDS011;12088;53.078;8.720;2022-08-25T05:48:54;2.20;;;1.95;;
23814;SDS011;12088;53.078;8.720;2022-08-25T05:51:20;5.60;;;3.10;;
23814;SDS011;12088;53.078;8.720;2022-08-25T05:53:47;3.25;;;2.25;;
23814;SDS011;12088;53.078;8.720;2022-08-25T05:56:14;3.05;;;1.65;;
23814;SDS011;12088;53.078;8.720;2022-08-25T05:58:40;4.43;;;2.88;;
23814;SDS011;12088;53.078;8.720;2022-08-25T06:01:07;2.80;;;2.35;;
23814;SDS011;12088;53.078;8.720;2022-08-25T06:04:05;4.35;;;2.20;;
23814;SDS011;12088;53.078;8.720;2022-08-25T06:06:30;4.13;;;2.05;;
23814;SDS011;12088;53.078;8.720;2022-08-25T06:08:56;3.35;;;2.30;;
23814;SDS011;12088;53.078;8.720;2022-08-25T06:11:21;2.00;;;1.88;;
23814;SDS011;12088;53.078;8.720;2022-08-25T06:13:47;3.17;;;2.20;;
23814;SDS011;12088;53.078;8.720;2022-08-25T06:16:13;4.32;;;2.50;;
23814;SDS011;12088;53.078;8.720;2022-08-25T06:18:39;3.65;;;2.63;;
23814;SDS011;12088;53.078;8.720;2022-08-25T06:21:08;2.80;;;2.28;;
23814;SDS011;12088;53.078;8.720;2022-08-25T06:23:35;3.70;;;2.83;;
23814;SDS011;12088;53.078;8.720;2022-08-25T06:26:01;3.00;;;2.72;;
23814;SDS011;12088;53.078;8.720;2022-08-25T06:28:27;4.20;;;2.63;;
23814;SDS011;12088;53.078;8.720;2022-08-25T06:30:56;3.28;;;2.25;;
23814;SDS011;12088;53.078;8.720;2022-08-25T06:33:23;2.33;;;2.13;;
23814;SDS011;12088;53.078;8.720;2022-08-25T06:35:48;5.57;;;2.95;;
23814;SDS011;12088;53.078;8.720;2022-08-25T06:38:19;3.10;;;2.05;;
23814;SDS011;12088;53.078;8.720;2022-08-25T06:40:46;4.32;;;2.72;;
23814;SDS011;12088;53.078;8.720;2022-08-25T06:43:12;2.95;;;2.28;;
23814;SDS011;12088;53.078;8.720;2022-08-25T06:45:37;4.13;;;2.47;;
23814;SDS011;12088;53.078;8.720;2022-08-25T06:48:03;6.28;;;3.38;;
23814;SDS011;12088;53.078;8.720;2022-08-25T06:50:29;5.63;;;2.90;;
23814;SDS011;12088;53.078;8.720;2022-08-25T06:52:54;4.18;;;3.13;;
23814;SDS011;12088;53.078;8.720;2022-08-25T06:55:19;7.85;;;2.83;;
23814;SDS011;12088;53.078;8.720;2022-08-25T06:57:45;3.63;;;2.83;;
23814;SDS011;12088;53.078;8.720;2022-08-25T07:00:11;4.65;;;2.95;;
23814;SDS011;12088;53.078;8.720;2022-08-25T07:02:37;3.47;;;2.50;;
23814;SDS011;12088;53.078;8.720;2022-08-25T07:05:03;3.88;;;2.15;;
23814;SDS011;12088;53.078;8.720;2022-08-25T07:07:29;3.42;;;2.63;;
23814;SDS011;12088;53.078;8.720;2022-08-25T07:09:54;6.18;;;2.97;;
23814;SDS011;12088;53.078;8.720;2022-08-25T07:12:20;2.67;;;2.47;;
23814;SDS011;12088;53.078;8.720;2022-08-25T07:14:48;6.80;;;2.53;;
23814;SDS011;12088;53.078;8.720;2022-08-25T07:17:14;4.28;;;3.22;;
23814;SDS011;12088;53.078;8.720;2022-08-25T07:19:39;3.85;;;2.42;;
23814;SDS011;12088;53.078;8.720;2022-08-25T07:22:05;3.30;;;3.00;;
23814;SDS011;12088;53.078;8.720;2022-08-25T07:24:30;2.95;;;2.60;;
23814;SDS011;12088;53.078;8.720;2022-08-25T07:26:56;3.55;;;2.75;;
23814;SDS011;12088;53.078;8.720;2022-08-25T07:29:24;4.45;;;2.40;;
23814;SDS011;12088;53.078;8.720;2022-08-25T07:31:52;2.78;;;2.13;;
23814;SDS011;12088;53.078;8.720;2022-08-25T07:34:18;2.58;;;2.00;;
23814;SDS011;12088;53.078;8.720;2022-08-25T07:37:02;2.80;;;2.40;;
23814;SDS011;12088;53.078;8.720;2022-08-25T07:39:31;3.63;;;2.17;;
23814;SDS011;12088;53.078;8.720;2022-08-25T07:41:57;1.98;;;1.77;;
23814;SDS011;12088;53.078;8.720;2022-08-25T07:44:23;2.13;;;1.92;;
23814;SDS011;12088;53.078;8.720;2022-08-25T07:46:50;3.97;;;2.95;;
23814;SDS011;12088;53.078;8.720;2022-08-25T07:49:19;2.72;;;2.47;;
23814;SDS011;12088;53.078;8.720;2022-08-25T07:51:46;3.28;;;2.60;;
23814;SDS011;12088;53.078;8.720;2022-08-25T07:54:12;3.45;;;2.53;;
23814;SDS011;12088;53.078;8.720;2022-08-25T07:56:38;3.92;;;2.85;;
23814;SDS011;12088;53.078;8.720;2022-08-25T07:59:06;3.80;;;2.65;;
23814;SDS011;12088;53.078;8.720;2022-08-25T08:01:31;4.50;;;2.65;;
23814;SDS011;12088;53.078;8.720;2022-08-25T08:03:57;7.68;;;2.53;;
23814;SDS011;12088;53.078;8.720;2022-08-25T08:06:24;2.20;;;1.98;;
23814;SDS011;12088;53.078;8.720;2022-08-25T08:08:50;4.97;;;2.60;;
23814;SDS011;12088;53.078;8.720;2022-08-25T08:11:21;3.45;;;2.28;;
23814;SDS011;12088;53.078;8.720;2022-08-25T08:13:51;2.10;;;1.90;;
23814;SDS011;12088;53.078;8.720;2022-08-25T08:16:18;2.72;;;1.98;;
23814;SDS011;12088;53.078;8.720;2022-08-25T08:18:45;2.00;;;1.80;;
23814;SDS011;12088;53.078;8.720;2022-08-25T08:21:15;2.85;;;2.58;;
23814;SDS011;12088;53.078;8.720;2022-08-25T08:23:43;2.22;;;1.88;;
23814;SDS011;12088;53.078;8.720;2022-08-25T08:26:09;2.80;;;2.38;;
23814;SDS011;12088;53.078;8.720;2022-08-25T08:28:35;2.30;;;2.05;;
23814;SDS011;12088;53.078;8.720;2022-08-25T08:31:01;2.53;;;1.98;;
23814;SDS011;12088;53.078;8.720;2022-08-25T08:33:27;12.52;;;2.10;;
23814;SDS011;12088;53.078;8.720;2022-08-25T08:38:23;1.77;;;1.67;;
23814;SDS011;12088;53.078;8.720;2022-08-25T08:40:54;1.40;;;1.30;;
23814;SDS011;12088;53.078;8.720;2022-08-25T08:44:02;1.80;;;1.40;;
23814;SDS011;12088;53.078;8.720;2022-08-25T08:46:37;1.80;;;1.70;;
23814;SDS011;12088;53.078;8.720;2022-08-25T08:49:17;1.95;;;1.67;;
23814;SDS011;12088;53.078;8.720;2022-08-25T08:52:00;2.25;;;1.98;;
23814;SDS011;12088;53.078;8.720;2022-08-25T08:54:28;2.05;;;1.48;;
23814;SDS011;12088;53.078;8.720;2022-08-25T08:57:12;3.20;;;2.05;;
23814;SDS011;12088;53.078;8.720;2022-08-25T08:59:48;1.77;;;1.58;;
23814;SDS011;12088;53.078;8.720;2022-08-25T09:02:22;1.83;;;1.73;;
23814;SDS011;12088;53.078;8.720;2022-08-25T09:04:54;1.88;;;1.75;;
23814;SDS011;12088;53.078;8.720;2022-08-25T09:07:25;5.68;;;2.20;;
23814;SDS011;12088;53.078;8.720;2022-08-25T09:09:55;3.75;;;2.17;;
23814;SDS011;12088;53.078;8.720;2022-08-25T09:15:16;1.77;;;1.67;;
23814;SDS011;12088;53.078;8.720;2022-08-25T09:18:04;3.40;;;2.00;;
23814;SDS011;12088;53.078;8.720;2022-08-25T09:20:57;1.88;;;1.77;;
23814;SDS011;12088;53.078;8.720;2022-08-25T09:29:06;1.92;;;1.60;;
23814;SDS011;12088;53.078;8.720;2022-08-25T09:31:39;2.03;;;1.83;;
23814;SDS011;12088;53.078;8.720;2022-08-25T09:34:11;1.95;;;1.80;;
23814;SDS011;12088;53.078;8.720;2022-08-25T09:36:46;1.83;;;1.65;;
23814;SDS011;12088;53.078;8.720;2022-08-25T09:39:14;1.48;;;1.38;;
23814;SDS011;12088;53.078;8.720;2022-08-25T09:41:42;1.52;;;1.40;;
23814;SDS011;12088;53.078;8.720;2022-08-25T09:46:53;1.63;;;1.52;;
23814;SDS011;12088;53.078;8.720;2022-08-25T09:49:39;4.82;;;1.60;;
23814;SDS011;12088;53.078;8.720;2022-08-25T09:55:01;2.03;;;1.83;;
23814;SDS011;12088;53.078;8.720;2022-08-25T09:57:54;1.80;;;1.48;;
23814;SDS011;12088;53.078;8.720;2022-08-25T10:03:06;2.17;;;1.30;;
23814;SDS011;12088;53.078;8.720;2022-08-25T10:05:33;1.77;;;1.67;;
23814;SDS011;12088;53.078;8.720;2022-08-25T10:08:08;1.98;;;1.52;;
23814;SDS011;12088;53.078;8.720;2022-08-25T10:10:38;1.30;;;1.20;;
23814;SDS011;12088;53.078;8.720;2022-08-25T10:13:12;1.90;;;1.80;;
23814;SDS011;12088;53.078;8.720;2022-08-25T10:15:39;2.10;;;1.73;;
23814;SDS011;12088;53.078;8.720;2022-08-25T10:21:26;2.20;;;1.25;;
23814;SDS011;12088;53.078;8.720;2022-08-25T10:23:46;1.70;;;1.60;;
23814;SDS011;12088;53.078;8.720;2022-08-25T10:26:31;1.98;;;1.73;;
23814;SDS011;12088;53.078;8.720;2022-08-25T10:29:21;1.38;;;1.27;;
23814;SDS011;12088;53.078;8.720;2022-08-25T10:31:55;1.23;;;1.17;;
23814;SDS011;12088;53.078;8.720;2022-08-25T10:37:31;2.28;;;1.45;;
23814;SDS011;12088;53.078;8.720;2022-08-25T10:45:23;1.90;;;1.42;;
23814;SDS011;12088;53.078;8.720;2022-08-25T10:48:53;1.35;;;1.25;;
23814;SDS011;12088;53.078;8.720;2022-08-25T10:54:11;1.30;;;1.20;;
23814;SDS011;12088;53.078;8.720;2022-08-25T10:59:49;1.25;;;1.15;;
23814;SDS011;12088;53.078;8.720;2022-08-25T11:07:34;1.85;;;1.35;;
23814;SDS011;12088;53.078;8.720;2022-08-25T11:10:07;1.58;;;1.30;;
23814;SDS011;12088;53.078;8.720;2022-08-25T11:12:38;1.60;;;1.50;;
23814;SDS011;12088;53.078;8.720;2022-08-25T11:15:20;1.50;;;1.40;;
23814;SDS011;12088;53.078;8.720;2022-08-25T11:17:54;1.40;;;1.15;;
23814;SDS011;12088;53.078;8.720;2022-08-25T11:20:23;3.15;;;1.27;;
23814;SDS011;12088;53.078;8.720;2022-08-25T11:25:50;2.13;;;1.50;;
23814;SDS011;12088;53.078;8.720;2022-08-25T11:28:25;2.88;;;2.20;;
23814;SDS011;12088;53.078;8.720;2022-08-25T11:30:59;1.20;;;1.10;;
23814;SDS011;12088;53.078;8.720;2022-08-25T11:33:27;1.52;;;1.42;;
23814;SDS011;12088;53.078;8.720;2022-08-25T11:35:56;1.35;;;1.25;;
23814;SDS011;12088;53.078;8.720;2022-08-25T11:38:51;0.98;;;0.98;;
23814;SDS011;12088;53.078;8.720;2022-08-25T11:44:29;1.05;;;0.95;;
23814;SDS011;12088;53.078;8.720;2022-08-25T11:47:11;1.13;;;1.10;;
23814;SDS011;12088;53.078;8.720;2022-08-25T11:54:56;1.38;;;1.25;;
23814;SDS011;12088;53.078;8.720;2022-08-25T11:57:41;2.90;;;1.85;;
23814;SDS011;12088;53.078;8.720;2022-08-25T12:05:09;2.50;;;1.73;;
23814;SDS011;12088;53.078;8.720;2022-08-25T12:10:53;1.35;;;1.25;;
23814;SDS011;12088;53.078;8.720;2022-08-25T12:21:50;1.13;;;1.13;;
23814;SDS011;12088;53.078;8.720;2022-08-25T12:24:20;1.90;;;1.23;;
23814;SDS011;12088;53.078;8.720;2022-08-25T12:27:05;2.00;;;1.77;;
23814;SDS011;12088;53.078;8.720;2022-08-25T12:29:44;1.05;;;1.05;;
23814;SDS011;12088;53.078;8.720;2022-08-25T12:43:26;2.20;;;1.40;;
23814;SDS011;12088;53.078;8.720;2022-08-25T12:48:54;1.50;;;1.40;;
23814;SDS011;12088;53.078;8.720;2022-08-25T12:51:25;1.40;;;1.30;;
23814;SDS011;12088;53.078;8.720;2022-08-25T12:56:52;1.25;;;1.20;;
23814;SDS011;12088;53.078;8.720;2022-08-25T12:59:22;1.40;;;1.30;;
23814;SDS011;12088;53.078;8.720;2022-08-25T13:02:07;1.75;;;1.38;;
23814;SDS011;12088;53.078;8.720;2022-08-25T13:08:00;2.10;;;1.30;;
23814;SDS011;12088;53.078;8.720;2022-08-25T13:13:05;3.38;;;1.83;;
23814;SDS011;12088;53.078;8.720;2022-08-25T13:15:44;2.30;;;1.73;;
23814;SDS011;12088;53.078;8.720;2022-08-25T13:18:23;1.45;;;1.27;;
23814;SDS011;12088;53.078;8.720;2022-08-25T13:23:55;1.40;;;1.30;;
23814;SDS011;12088;53.078;8.720;2022-08-25T13:26:25;1.52;;;1.42;;
23814;SDS011;12088;53.078;8.720;2022-08-25T13:28:59;1.00;;;1.00;;
23814;SDS011;12088;53.078;8.720;2022-08-25T13:31:31;1.58;;;1.48;;
23814;SDS011;12088;53.078;8.720;2022-08-25T13:33:58;1.75;;;1.27;;
23814;SDS011;12088;53.078;8.720;2022-08-25T13:36:30;2.15;;;1.25;;
23814;SDS011;12088;53.078;8.720;2022-08-25T13:39:18;1.42;;;1.33;;
23814;SDS011;12088;53.078;8.720;2022-08-25T13:41:46;2.15;;;1.70;;
23814;SDS011;12088;53.078;8.720;2022-08-25T13:44:14;1.08;;;1.08;;
23814;SDS011;12088;53.078;8.720;2022-08-25T13:46:41;3.28;;;1.25;;
23814;SDS011;12088;53.078;8.720;2022-08-25T13:49:09;1.25;;;1.17;;
23814;SDS011;12088;53.078;8.720;2022-08-25T13:51:36;1.42;;;1.33;;
23814;SDS011;12088;53.078;8.720;2022-08-25T13:54:06;2.65;;;1.38;;
23814;SDS011;12088;53.078;8.720;2022-08-25T13:56:47;2.10;;;1.83;;
23814;SDS011;12088;53.078;8.720;2022-08-25T13:59:25;4.05;;;1.80;;
23814;SDS011;12088;53.078;8.720;2022-08-25T14:01:53;1.30;;;1.20;;
23814;SDS011;12088;53.078;8.720;2022-08-25T14:04:43;1.33;;;1.23;;
23814;SDS011;12088;53.078;8.720;2022-08-25T14:09:49;2.75;;;1.70;;
23814;SDS011;12088;53.078;8.720;2022-08-25T14:15:10;5.05;;;1.50;;
23814;SDS011;12088;53.078;8.720;2022-08-25T14:17:42;1.42;;;1.33;;
23814;SDS011;12088;53.078;8.720;2022-08-25T14:22:50;1.70;;;1.40;;
23814;SDS011;12088;53.078;8.720;2022-08-25T14:25:23;1.52;;;1.42;;
23814;SDS011;12088;53.078;8.720;2022-08-25T14:27:57;4.65;;;2.05;;
23814;SDS011;12088;53.078;8.720;2022-08-25T14:30:26;2.15;;;1.95;;
23814;SDS011;12088;53.078;8.720;2022-08-25T14:32:52;1.30;;;1.20;;
23814;SDS011;12088;53.078;8.720;2022-08-25T14:35:18;1.40;;;1.23;;
23814;SDS011;12088;53.078;8.720;2022-08-25T14:37:44;1.20;;;1.10;;
23814;SDS011;12088;53.078;8.720;2022-08-25T14:40:10;1.52;;;1.20;;
23814;SDS011;12088;53.078;8.720;2022-08-25T14:42:43;1.38;;;1.27;;
23814;SDS011;12088;53.078;8.720;2022-08-25T14:45:16;1.52;;;1.38;;
23814;SDS011;12088;53.078;8.720;2022-08-25T14:47:42;2.05;;;1.75;;
23814;SDS011;12088;53.078;8.720;2022-08-25T14:50:10;1.13;;;1.02;;
23814;SDS011;12088;53.078;8.720;2022-08-25T14:52:39;1.25;;;1.15;;
23814;SDS011;12088;53.078;8.720;2022-08-25T14:55:05;1.27;;;1.20;;
23814;SDS011;12088;53.078;8.720;2022-08-25T14:57:31;1.70;;;1.52;;
23814;SDS011;12088;53.078;8.720;2022-08-25T14:59:57;1.70;;;1.50;;
23814;SDS011;12088;53.078;8.720;2022-08-25T15:02:22;1.02;;;1.02;;
23814;SDS011;12088;53.078;8.720;2022-08-25T15:04:53;2.72;;;2.20;;
23814;SDS011;12088;53.078;8.720;2022-08-25T15:07:21;1.50;;;1.40;;
23814;SDS011;12088;53.078;8.720;2022-08-25T15:10:06;2.00;;;1.80;;
23814;SDS011;12088;53.078;8.720;2022-08-25T15:12:33;1.67;;;1.52;;
23814;SDS011;12088;53.078;8.720;2022-08-25T15:14:58;1.60;;;1.50;;
23814;SDS011;12088;53.078;8.720;2022-08-25T15:17:25;2.58;;;1.73;;
23814;SDS011;12088;53.078;8.720;2022-08-25T15:19:51;1.58;;;1.48;;
23814;SDS011;12088;53.078;8.720;2022-08-25T15:22:17;5.35;;;1.60;;
23814;SDS011;12088;53.078;8.720;2022-08-25T15:24:42;1.63;;;1.50;;
23814;SDS011;12088;53.078;8.720;2022-08-25T15:27:08;5.07;;;1.90;;
23814;SDS011;12088;53.078;8.720;2022-08-25T15:29:33;1.73;;;1.60;;
23814;SDS011;12088;53.078;8.720;2022-08-25T15:32:00;1.48;;;1.35;;
23814;SDS011;12088;53.078;8.720;2022-08-25T15:34:27;2.85;;;2.03;;
23814;SDS011;12088;53.078;8.720;2022-08-25T15:36:54;2.15;;;1.52;;
23814;SDS011;12088;53.078;8.720;2022-08-25T15:39:23;2.35;;;1.75;;
23814;SDS011;12088;53.078;8.720;2022-08-25T15:41:49;2.83;;;1.48;;
23814;SDS011;12088;53.078;8.720;2022-08-25T15:44:16;1.40;;;1.30;;
23814;SDS011;12088;53.078;8.720;2022-08-25T15:46:42;3.42;;;1.48;;
23814;SDS011;12088;53.078;8.720;2022-08-25T15:49:08;3.00;;;1.45;;
23814;SDS011;12088;53.078;8.720;2022-08-25T15:51:34;1.55;;;1.45;;
23814;SDS011;12088;53.078;8.720;2022-08-25T15:54:00;1.67;;;1.58;;
23814;SDS011;12088;53.078;8.720;2022-08-25T15:56:25;1.30;;;1.20;;
23814;SDS011;12088;53.078;8.720;2022-08-25T15:58:51;1.52;;;1.42;;
23814;SDS011;12088;53.078;8.720;2022-08-25T16:01:18;3.30;;;1.58;;
23814;SDS011;12088;53.078;8.720;2022-08-25T16:03:46;1.48;;;1.27;;
23814;SDS011;12088;53.078;8.720;2022-08-25T16:06:11;4.63;;;1.77;;
23814;SDS011;12088;53.078;8.720;2022-08-25T16:08:37;1.70;;;1.48;;
23814;SDS011;12088;53.078;8.720;2022-08-25T16:11:03;1.20;;;1.10;;
23814;SDS011;12088;53.078;8.720;2022-08-25T16:13:30;1.50;;;1.40;;
23814;SDS011;12088;53.078;8.720;2022-08-25T16:15:56;1.65;;;1.55;;
23814;SDS011;12088;53.078;8.720;2022-08-25T16:18:23;2.63;;;1.85;;
23814;SDS011;12088;53.078;8.720;2022-08-25T16:20:49;1.10;;;1.00;;
23814;SDS011;12088;53.078;8.720;2022-08-25T16:23:16;1.60;;;1.38;;
23814;SDS011;12088;53.078;8.720;2022-08-25T16:25:43;1.85;;;1.73;;
23814;SDS011;12088;53.078;8.720;2022-08-25T16:28:11;1.67;;;1.42;;
23814;SDS011;12088;53.078;8.720;2022-08-25T16:30:38;1.60;;;1.50;;
23814;SDS011;12088;53.078;8.720;2022-08-25T16:33:04;1.80;;;1.70;;
23814;SDS011;12088;53.078;8.720;2022-08-25T16:35:30;2.40;;;1.40;;
23814;SDS011;12088;53.078;8.720;2022-08-25T16:37:56;1.40;;;1.30;;
23814;SDS011;12088;53.078;8.720;2022-08-25T16:40:22;1.60;;;1.50;;
23814;SDS011;12088;53.078;8.720;2022-08-25T16:42:50;1.95;;;1.58;;